createdAt,value
2023-01-17T00:03:23.303Z,102843.13
2023-01-17T00:08:55.323Z,102838.88
2023-01-17T00:14:35.179Z,102836.88
2023-01-17T00:19:56.017Z,102845.06
2023-01-17T00:25:17.279Z,102844.88
2023-01-17T00:30:19.958Z,102847.50
2023-01-17T00:35:23.898Z,102842.19
2023-01-17T00:40:26.481Z,102845.81
2023-01-17T00:45:48.405Z,102841.59
2023-01-17T00:51:09.470Z,102840.06
2023-01-17T00:56:30.664Z,102841.22
2023-01-17T01:01:52.546Z,102848.97
2023-01-17T01:07:13.690Z,102844.75
2023-01-17T01:12:35.200Z,102846.75
2023-01-17T01:17:56.408Z,102845.59
2023-01-17T01:23:17.536Z,102842.81
2023-01-17T01:28:38.558Z,102838.00
2023-01-17T01:33:41.256Z,102842.22
2023-01-17T01:38:43.878Z,102826.69
2023-01-17T01:43:55.039Z,102841.03
2023-01-17T01:49:17.349Z,102843.06
2023-01-17T01:54:28.717Z,102847.13
2023-01-17T01:59:36.135Z,102851.34
2023-01-17T02:04:39.426Z,102847.06
2023-01-17T02:09:42.321Z,102850.59
2023-01-17T02:14:47.266Z,102854.31
2023-01-17T02:20:23.344Z,102853.47
2023-01-17T02:25:50.684Z,102851.75
2023-01-17T02:31:03.362Z,102863.06
2023-01-17T02:36:22.912Z,102856.91
2023-01-17T02:41:41.832Z,102859.06
2023-01-17T02:46:52.534Z,102855.50
2023-01-17T02:52:12.027Z,102859.91
2023-01-17T02:57:39.259Z,102864.66
2023-01-17T03:02:57.040Z,102875.88
2023-01-17T03:08:00.849Z,102877.84
2023-01-17T03:13:04.755Z,102884.66
2023-01-17T03:18:13.181Z,102874.44
2023-01-17T03:23:16.464Z,102874.97
2023-01-17T03:28:19.727Z,102887.44
2023-01-17T03:33:22.461Z,102884.84
2023-01-17T03:38:43.139Z,102890.81
2023-01-17T03:43:46.429Z,102891.19
2023-01-17T03:48:52.286Z,102903.28
2023-01-17T03:53:54.871Z,102895.91
2023-01-17T03:58:58.867Z,102911.50
2023-01-17T04:04:01.479Z,102894.75
2023-01-17T04:09:04.771Z,102911.03
2023-01-17T04:14:07.287Z,102926.88
2023-01-17T04:19:13.922Z,102925.97
2023-01-17T04:24:17.856Z,102935.84
2023-01-17T04:29:20.749Z,102928.94
2023-01-17T04:34:23.660Z,102945.06
2023-01-17T04:39:29.570Z,102944.50
2023-01-17T04:44:35.290Z,102951.66
2023-01-17T04:49:38.400Z,102962.97
2023-01-17T04:54:42.352Z,102968.97
2023-01-17T04:59:45.599Z,102977.13
2023-01-17T05:04:48.122Z,102991.25
2023-01-17T05:09:51.994Z,102988.16
2023-01-17T05:14:54.569Z,102993.59
2023-01-17T05:19:59.354Z,102994.25
2023-01-17T05:25:02.749Z,103002.41
2023-01-17T05:30:08.109Z,103000.44
2023-01-17T05:35:10.679Z,102989.44
2023-01-17T05:40:17.125Z,103006.56
2023-01-17T05:45:22.127Z,103003.69
2023-01-17T05:50:27.180Z,103002.41
2023-01-17T05:55:30.894Z,103024.00
2023-01-17T06:00:37.553Z,103009.00
2023-01-17T06:05:40.543Z,103015.03
2023-01-17T06:10:46.053Z,103020.34
2023-01-17T06:15:48.972Z,103006.50
2023-01-17T06:20:54.779Z,103011.88
2023-01-17T06:25:57.576Z,103016.25
2023-01-17T06:31:00.236Z,103004.31
2023-01-17T06:36:02.767Z,103002.34
2023-01-17T06:41:05.973Z,102994.75
2023-01-17T06:46:09.164Z,102990.09
2023-01-17T06:51:12.408Z,102978.50
2023-01-17T06:56:15.708Z,102977.34
2023-01-17T07:01:19.240Z,102984.28
2023-01-17T07:06:22.071Z,102991.41
2023-01-17T07:11:24.705Z,102990.28
2023-01-17T07:16:27.247Z,102994.03
2023-01-17T07:21:32.110Z,102993.03
2023-01-17T07:26:34.913Z,102999.13
2023-01-17T07:31:38.930Z,102985.16
2023-01-17T07:36:41.460Z,102995.75
2023-01-17T07:41:45.169Z,102965.22
2023-01-17T07:46:47.848Z,102971.28
2023-01-17T07:51:53.344Z,102962.91
2023-01-17T07:56:55.883Z,102974.72
2023-01-17T08:01:59.212Z,102982.38
2023-01-17T08:07:02.603Z,102968.09
2023-01-17T08:12:05.317Z,102985.47
2023-01-17T08:17:12.927Z,102982.25
2023-01-17T08:22:15.409Z,102980.66
2023-01-17T08:27:17.856Z,102978.25
2023-01-17T08:32:21.655Z,102976.97
2023-01-17T08:37:25.160Z,102979.53
2023-01-17T08:42:30.299Z,102966.41
2023-01-17T08:47:33.933Z,102960.47
2023-01-17T08:52:36.476Z,102955.41
2023-01-17T08:57:38.932Z,102960.97
2023-01-17T09:08:09.870Z,102953.34
2023-01-17T09:13:12.524Z,102945.28
2023-01-17T09:18:15.067Z,102951.72
2023-01-17T09:28:42.995Z,102940.50
2023-01-17T09:33:45.622Z,102925.03
2023-01-17T09:38:48.502Z,102933.56
2023-01-17T09:44:29.429Z,102920.31
2023-01-17T09:49:38.288Z,102932.94
2023-01-17T09:54:46.843Z,102909.94
2023-01-17T10:00:15.188Z,102922.28
2023-01-17T10:05:36.748Z,102921.78
2023-01-17T10:11:09.896Z,102915.94
2023-01-17T10:16:18.426Z,102914.38
2023-01-17T10:21:39.544Z,102907.31
2023-01-17T10:26:44.241Z,102919.19
2023-01-17T10:31:54.548Z,102898.06
2023-01-17T10:37:04.467Z,102894.66
2023-01-17T10:42:35.082Z,102900.66
2023-01-17T10:47:39.718Z,102904.41
2023-01-17T10:53:00.341Z,102905.84
2023-01-17T10:58:04.044Z,102904.44
2023-01-17T11:03:07.855Z,102905.22
2023-01-17T11:08:16.501Z,102895.63
2023-01-17T11:13:37.204Z,102907.75
2023-01-17T11:18:51.354Z,102910.03
2023-01-17T11:23:57.700Z,102910.13
2023-01-17T11:29:37.142Z,102911.31
2023-01-17T11:34:39.706Z,102914.69
2023-01-17T11:39:43.673Z,102910.88
2023-01-17T11:44:50.700Z,102913.28
2023-01-17T11:49:53.238Z,102918.97
2023-01-17T11:54:59.014Z,102925.31
2023-01-17T12:00:25.268Z,102922.09
2023-01-17T12:05:47.072Z,102914.47
2023-01-17T12:11:14.910Z,102898.97
2023-01-17T12:16:32.311Z,102917.00
2023-01-17T12:22:00.451Z,102928.09
2023-01-17T12:27:05.890Z,102924.78
2023-01-17T12:32:36.015Z,102923.97
2023-01-17T12:37:42.689Z,102930.34
2023-01-17T12:43:14.923Z,102919.81
2023-01-17T12:48:21.989Z,102934.03
2023-01-17T12:53:59.663Z,102938.78
2023-01-17T12:59:50.823Z,102941.72
2023-01-17T13:05:05.588Z,102941.44
2023-01-17T13:10:08.129Z,102943.88
2023-01-17T13:15:25.448Z,102950.59
2023-01-17T13:20:29.146Z,102952.34
2023-01-17T13:25:45.371Z,102960.19
2023-01-17T13:30:59.740Z,102960.19
2023-01-17T13:36:20.558Z,102962.66
2023-01-17T13:41:35.940Z,102966.00
2023-01-17T13:46:59.075Z,102974.41
2023-01-17T13:52:19.943Z,102962.16
2023-01-17T13:57:40.284Z,102969.81
2023-01-17T14:02:43.951Z,102970.53
2023-01-17T14:07:53.984Z,102971.28
2023-01-17T14:12:57.291Z,102982.16
2023-01-17T14:18:00.668Z,102987.09
2023-01-17T14:23:20.931Z,102993.81
2023-01-17T14:28:29.531Z,102995.22
2023-01-17T14:33:39.757Z,102988.00
2023-01-17T14:38:43.916Z,102990.31
2023-01-17T14:43:48.722Z,102994.28
2023-01-17T14:49:20.842Z,102993.84
2023-01-17T14:54:23.800Z,102991.03
2023-01-17T14:59:26.401Z,102996.91
2023-01-17T15:04:39.928Z,103000.53
2023-01-17T15:09:44.789Z,103006.84
2023-01-17T15:14:47.395Z,103006.16
2023-01-17T15:19:56.777Z,103010.81
2023-01-17T15:25:00.408Z,103012.00
2023-01-17T15:30:04.456Z,103008.59
2023-01-17T15:35:08.407Z,103003.50
2023-01-17T15:40:19.038Z,103010.00
2023-01-17T15:45:27.438Z,103026.22
2023-01-17T15:50:32.223Z,103016.28
2023-01-17T15:55:37.833Z,103012.41
2023-01-17T16:00:42.207Z,103013.97
2023-01-17T16:05:45.055Z,103018.34
2023-01-17T16:10:47.566Z,103009.94
2023-01-17T16:15:50.250Z,103020.59
2023-01-17T16:21:05.751Z,103038.97
2023-01-17T16:26:11.079Z,103035.88
2023-01-17T16:31:13.836Z,103026.09
2023-01-17T16:36:17.417Z,103017.66
2023-01-17T16:41:21.092Z,103018.84
2023-01-17T16:46:23.873Z,103038.56
2023-01-17T16:51:26.491Z,103033.63
2023-01-17T16:56:29.075Z,103030.38
2023-01-17T17:01:35.359Z,103038.47
2023-01-17T17:06:38.171Z,103040.34
2023-01-17T17:11:43.156Z,103020.91
2023-01-17T17:16:45.800Z,103039.00
2023-01-17T17:21:49.253Z,103034.81
2023-01-17T17:26:51.765Z,103034.88
2023-01-17T17:31:55.639Z,103041.91
2023-01-17T17:36:58.182Z,103043.75
2023-01-17T17:42:00.628Z,103044.78
2023-01-17T17:47:04.307Z,103043.22
2023-01-17T17:52:07.680Z,103042.38
2023-01-17T17:57:10.181Z,103038.25
2023-01-17T18:02:12.669Z,103034.03
2023-01-17T18:07:15.152Z,103020.34
2023-01-17T18:12:17.631Z,103023.19
2023-01-17T18:17:20.601Z,103030.94
2023-01-17T18:22:23.299Z,103028.38
2023-01-17T18:27:25.851Z,103028.38
2023-01-17T18:32:28.307Z,103026.72
2023-01-17T18:37:30.835Z,103020.72
2023-01-17T18:42:33.305Z,103027.81
2023-01-17T18:47:37.989Z,103026.94
2023-01-17T18:52:41.139Z,103023.59
2023-01-17T18:57:43.613Z,103023.63
2023-01-17T19:02:49.011Z,103025.34
2023-01-17T19:07:54.401Z,103022.00
2023-01-17T19:12:56.967Z,103018.72
2023-01-17T19:17:59.492Z,102995.66
2023-01-17T19:23:02.005Z,103024.00
2023-01-17T19:28:04.662Z,103027.47
2023-01-17T19:33:07.186Z,103006.75
2023-01-17T19:38:09.691Z,103027.59
2023-01-17T19:43:12.207Z,103007.97
2023-01-17T19:48:14.686Z,103021.97
2023-01-17T19:53:17.448Z,103024.53
2023-01-17T19:58:19.878Z,103018.53
2023-01-17T20:03:22.434Z,103015.19
2023-01-17T20:08:24.928Z,103021.59
2023-01-17T20:13:27.382Z,103009.81
2023-01-17T20:18:30.341Z,103016.50
2023-01-17T20:23:36.719Z,103020.59
2023-01-17T20:28:40.952Z,103014.84
2023-01-17T20:33:45.014Z,103023.75
2023-01-17T20:38:49.128Z,103025.16
2023-01-17T20:43:54.413Z,103016.94
2023-01-17T20:48:58.236Z,103010.34
2023-01-17T20:54:05.070Z,103009.69
2023-01-17T20:59:09.789Z,103013.97
2023-01-17T21:04:13.253Z,102990.78
2023-01-17T21:09:17.413Z,103004.16
2023-01-17T21:14:21.890Z,103012.47
2023-01-17T21:19:24.493Z,103012.41
2023-01-17T21:24:29.492Z,103021.19
2023-01-17T21:29:34.524Z,103014.31
2023-01-17T21:34:37.008Z,103008.03
2023-01-17T21:39:39.698Z,103012.72
2023-01-17T21:44:42.323Z,103010.34
2023-01-17T21:49:46.045Z,103021.59
2023-01-17T21:55:07.284Z,103031.22
2023-01-17T22:00:14.772Z,103026.53
2023-01-17T22:05:20.973Z,103032.94
2023-01-17T22:10:24.512Z,103036.88
2023-01-17T22:15:27.321Z,103038.81
2023-01-17T22:20:29.975Z,103031.81
2023-01-17T22:25:32.669Z,103041.09
2023-01-17T22:30:35.257Z,103038.78
2023-01-17T22:35:37.694Z,103041.84
2023-01-17T22:40:40.172Z,103036.59
2023-01-17T22:45:42.739Z,103034.41
2023-01-17T22:50:45.936Z,103035.97
2023-01-17T22:55:48.652Z,103046.81
2023-01-17T23:00:51.371Z,103048.28
2023-01-17T23:05:54.319Z,103047.25
2023-01-17T23:11:35.554Z,103046.78
2023-01-17T23:16:58.221Z,103056.19
2023-01-17T23:22:19.482Z,103060.25
2023-01-17T23:27:47.120Z,103053.66
2023-01-17T23:32:51.228Z,103060.97
2023-01-17T23:38:12.669Z,103071.31
2023-01-17T23:43:30.126Z,103060.84
2023-01-17T23:48:32.717Z,103071.63
2023-01-17T23:53:37.051Z,103061.19
2023-01-17T23:58:40.754Z,103056.78
